createdAt,value
2023-03-26T00:01:15.731Z,8.75
2023-03-26T00:03:44.815Z,9.10
2023-03-26T00:06:16.113Z,9.10
2023-03-26T00:08:45.056Z,10.55
2023-03-26T00:11:13.228Z,10.27
2023-03-26T00:13:41.541Z,8.35
2023-03-26T00:16:08.550Z,9.87
2023-03-26T00:18:35.346Z,9.10
2023-03-26T00:21:05.597Z,10.35
2023-03-26T00:23:33.223Z,9.25
2023-03-26T00:26:00.920Z,10.63
2023-03-26T00:28:27.645Z,9.93
2023-03-26T00:30:59.372Z,9.05
2023-03-26T00:33:26.683Z,9.65
2023-03-26T00:35:54.500Z,8.57
2023-03-26T00:38:22.524Z,8.90
2023-03-26T00:40:51.111Z,10.07
2023-03-26T00:43:19.404Z,9.60
2023-03-26T00:45:50.306Z,9.55
2023-03-26T00:48:17.324Z,9.98
2023-03-26T00:50:45.559Z,9.65
2023-03-26T00:53:13.871Z,10.77
2023-03-26T00:55:41.466Z,11.90
2023-03-26T00:58:11.611Z,10.48
2023-03-26T01:00:58.123Z,9.38
2023-03-26T01:03:27.683Z,9.75
2023-03-26T01:06:02.766Z,9.03
2023-03-26T01:08:34.209Z,9.77
2023-03-26T01:11:14.342Z,9.65
2023-03-26T01:13:47.330Z,10.50
2023-03-26T01:16:56.069Z,11.27
2023-03-26T01:19:46.553Z,10.40
2023-03-26T01:22:17.979Z,9.73
2023-03-26T01:24:48.700Z,9.05
2023-03-26T01:27:36.475Z,9.05
2023-03-26T01:30:12.786Z,9.80
2023-03-26T01:33:06.860Z,9.17
2023-03-26T01:35:36.718Z,9.13
2023-03-26T01:38:28.041Z,10.13
2023-03-26T01:40:54.678Z,9.85
2023-03-26T01:43:21.699Z,9.60
2023-03-26T01:45:48.503Z,11.77
2023-03-26T01:48:15.239Z,10.23
2023-03-26T01:50:42.130Z,8.15
2023-03-26T01:53:09.365Z,9.55
2023-03-26T01:56:02.144Z,9.00
2023-03-26T01:58:47.237Z,8.37
2023-03-26T02:01:17.032Z,8.95
2023-03-26T02:03:51.452Z,10.00
2023-03-26T02:06:30.867Z,8.45
2023-03-26T02:08:59.618Z,9.63
2023-03-26T02:11:34.724Z,10.07
2023-03-26T02:14:03.336Z,8.65
2023-03-26T02:16:30.107Z,8.77
2023-03-26T02:18:59.375Z,9.30
2023-03-26T02:21:26.566Z,9.63
2023-03-26T02:24:07.057Z,9.83
2023-03-26T02:26:34.785Z,10.15
2023-03-26T02:29:01.934Z,9.52
2023-03-26T02:31:28.743Z,10.10
2023-03-26T02:33:55.725Z,9.43
2023-03-26T02:36:27.604Z,9.07
2023-03-26T02:38:55.691Z,8.93
2023-03-26T02:41:22.498Z,9.07
2023-03-26T02:43:49.264Z,8.70
2023-03-26T02:46:16.129Z,10.00
2023-03-26T02:48:44.041Z,9.50
2023-03-26T02:51:10.889Z,7.60
2023-03-26T02:53:39.603Z,8.95
2023-03-26T02:56:07.621Z,8.20
2023-03-26T02:58:34.425Z,9.85
2023-03-26T03:01:03.260Z,9.83
2023-03-26T03:03:30.255Z,10.65
2023-03-26T03:05:57.488Z,9.90
2023-03-26T03:08:26.458Z,10.00
2023-03-26T03:11:10.509Z,9.18
2023-03-26T03:13:37.311Z,9.30
2023-03-26T03:16:04.237Z,8.07
2023-03-26T03:18:31.006Z,10.10
2023-03-26T03:20:57.761Z,9.60
2023-03-26T03:23:24.585Z,8.75
2023-03-26T03:25:52.842Z,8.53
2023-03-26T03:28:20.584Z,8.93
2023-03-26T03:30:47.479Z,8.68
2023-03-26T03:33:14.206Z,8.32
2023-03-26T03:35:41.914Z,9.25
2023-03-26T03:38:08.716Z,9.73
2023-03-26T03:40:35.719Z,9.13
2023-03-26T03:43:02.455Z,10.68
2023-03-26T03:45:29.223Z,9.60
2023-03-26T03:47:56.051Z,8.20
2023-03-26T03:50:22.957Z,8.87
2023-03-26T03:52:50.726Z,8.65
2023-03-26T03:55:17.487Z,10.68
2023-03-26T03:57:44.376Z,9.30
2023-03-26T04:00:11.929Z,9.32
2023-03-26T04:02:39.052Z,10.33
2023-03-26T04:05:06.470Z,9.38
2023-03-26T04:07:33.251Z,10.77
2023-03-26T04:10:00.423Z,9.88
2023-03-26T04:12:28.467Z,9.13
2023-03-26T04:14:55.735Z,8.97
2023-03-26T04:17:22.902Z,9.48
2023-03-26T04:19:50.548Z,9.15
2023-03-26T04:22:18.465Z,8.98
2023-03-26T04:24:45.837Z,9.07
2023-03-26T04:27:14.783Z,8.60
2023-03-26T04:29:45.270Z,8.68
2023-03-26T04:32:19.558Z,9.90
2023-03-26T04:34:48.285Z,9.45
2023-03-26T04:37:34.748Z,8.43
2023-03-26T04:40:06.374Z,10.23
2023-03-26T04:42:33.495Z,9.82
2023-03-26T04:45:03.141Z,10.20
2023-03-26T04:47:29.920Z,9.02
2023-03-26T04:49:56.703Z,10.75
2023-03-26T04:52:23.469Z,9.40
2023-03-26T04:54:50.395Z,9.90
2023-03-26T04:57:26.290Z,10.68
2023-03-26T04:59:53.227Z,9.05
2023-03-26T05:02:20.264Z,9.65
2023-03-26T05:04:47.127Z,10.30
2023-03-26T05:07:17.614Z,10.70
2023-03-26T05:09:44.432Z,10.05
2023-03-26T05:12:11.139Z,11.48
2023-03-26T05:14:37.869Z,10.25
2023-03-26T05:17:06.037Z,11.23
2023-03-26T05:19:32.989Z,9.35
2023-03-26T05:21:59.758Z,10.38
2023-03-26T05:24:28.758Z,11.02
2023-03-26T05:26:56.255Z,8.70
2023-03-26T05:29:24.268Z,10.33
2023-03-26T05:31:51.239Z,9.45
2023-03-26T05:34:17.987Z,10.23
2023-03-26T05:36:44.762Z,8.77
2023-03-26T05:39:11.475Z,8.90
2023-03-26T05:41:38.270Z,9.13
2023-03-26T05:44:05.280Z,8.35
2023-03-26T05:46:32.101Z,8.32
2023-03-26T05:48:58.942Z,8.02
2023-03-26T05:51:26.017Z,7.03
2023-03-26T05:53:52.825Z,7.70
2023-03-26T05:56:19.616Z,6.63
2023-03-26T05:58:47.634Z,8.07
2023-03-26T06:01:18.553Z,7.10
2023-03-26T06:03:45.771Z,8.52
2023-03-26T06:06:16.687Z,6.90
2023-03-26T06:08:48.903Z,6.47
2023-03-26T06:11:29.287Z,6.70
2023-03-26T06:13:56.066Z,6.55
2023-03-26T06:16:27.182Z,6.85
2023-03-26T06:18:56.468Z,5.60
2023-03-26T06:21:25.257Z,5.95
2023-03-26T06:23:52.267Z,6.00
2023-03-26T06:26:19.204Z,6.25
2023-03-26T06:28:46.230Z,5.22
2023-03-26T06:31:13.123Z,5.90
2023-03-26T06:33:40.034Z,4.93
2023-03-26T06:36:07.309Z,5.00
2023-03-26T06:38:34.108Z,5.07
2023-03-26T06:41:07.152Z,4.43
2023-03-26T06:43:34.088Z,5.30
2023-03-26T06:46:01.773Z,4.65
2023-03-26T06:48:28.647Z,4.68
2023-03-26T06:50:55.802Z,4.88
2023-03-26T06:53:22.725Z,5.03
2023-03-26T06:55:49.544Z,4.80
2023-03-26T06:58:16.902Z,5.20
2023-03-26T07:00:43.881Z,4.97
2023-03-26T07:03:11.669Z,4.50
2023-03-26T07:05:40.579Z,4.35
2023-03-26T07:08:07.392Z,4.37
2023-03-26T07:10:34.160Z,5.30
2023-03-26T07:13:01.174Z,4.63
2023-03-26T07:15:28.779Z,4.35
2023-03-26T07:17:56.417Z,4.70
2023-03-26T07:20:23.336Z,5.17
2023-03-26T07:22:50.597Z,4.70
2023-03-26T07:25:17.850Z,4.10
2023-03-26T07:27:50.340Z,4.50
2023-03-26T07:30:38.899Z,5.70
2023-03-26T07:33:09.163Z,5.27
2023-03-26T07:35:41.089Z,4.05
2023-03-26T07:38:35.445Z,6.25
2023-03-26T07:41:28.601Z,3.85
2023-03-26T07:44:21.370Z,4.65
2023-03-26T07:46:48.882Z,4.27
2023-03-26T07:49:17.925Z,5.13
2023-03-26T07:51:44.995Z,5.45
2023-03-26T07:54:12.130Z,4.28
2023-03-26T07:56:40.103Z,4.88
2023-03-26T07:59:16.342Z,5.30
2023-03-26T08:02:02.096Z,4.85
2023-03-26T08:04:58.366Z,5.28
2023-03-26T08:08:02.947Z,5.15
2023-03-26T08:10:54.146Z,4.32
2023-03-26T08:13:42.477Z,4.57
2023-03-26T08:16:48.046Z,4.07
2023-03-26T08:19:54.195Z,4.75
2023-03-26T08:22:32.265Z,4.15
2023-03-26T08:25:17.880Z,4.13
2023-03-26T08:27:50.302Z,4.47
2023-03-26T08:30:23.560Z,4.53
2023-03-26T08:32:57.514Z,4.78
2023-03-26T08:35:25.090Z,3.45
2023-03-26T08:37:52.056Z,4.38
2023-03-26T08:40:38.110Z,3.90
2023-03-26T08:43:46.681Z,3.83
2023-03-26T08:46:39.536Z,3.50
2023-03-26T08:49:29.693Z,3.78
2023-03-26T08:52:34.024Z,4.30
2023-03-26T08:55:10.263Z,4.17
2023-03-26T08:57:49.169Z,5.22
2023-03-26T09:00:46.432Z,4.15
2023-03-26T09:03:31.938Z,4.93
2023-03-26T09:06:17.036Z,3.42
2023-03-26T09:09:08.286Z,3.17
2023-03-26T09:12:07.194Z,3.67
2023-03-26T09:14:41.148Z,4.07
2023-03-26T09:17:38.875Z,3.10
2023-03-26T09:20:43.540Z,3.53
2023-03-26T09:23:52.698Z,3.77
2023-03-26T09:26:44.214Z,3.40
2023-03-26T09:29:48.369Z,3.42
2023-03-26T09:32:36.903Z,3.45
2023-03-26T09:35:25.049Z,4.00
2023-03-26T09:37:58.751Z,2.70
2023-03-26T09:40:53.463Z,3.10
2023-03-26T09:43:32.401Z,2.67
2023-03-26T09:46:28.275Z,2.95
2023-03-26T09:49:10.212Z,2.95
2023-03-26T09:52:14.212Z,2.80
2023-03-26T09:54:48.348Z,3.67
2023-03-26T09:57:25.104Z,3.33
2023-03-26T10:00:07.512Z,2.90
2023-03-26T10:02:52.907Z,2.83
2023-03-26T10:06:12.003Z,2.73
2023-03-26T10:09:17.608Z,3.63
2023-03-26T10:12:15.375Z,3.17
2023-03-26T10:15:01.084Z,2.95
2023-03-26T10:17:33.770Z,4.82
2023-03-26T10:20:25.493Z,4.57
2023-03-26T10:23:10.764Z,3.67
2023-03-26T10:25:56.385Z,4.40
2023-03-26T10:28:59.583Z,4.40
2023-03-26T10:31:46.858Z,4.15
2023-03-26T10:34:44.989Z,3.90
2023-03-26T10:37:17.756Z,3.50
2023-03-26T10:39:50.245Z,4.57
2023-03-26T10:42:22.608Z,4.20
2023-03-26T10:45:20.840Z,4.50
2023-03-26T10:47:53.473Z,3.63
2023-03-26T10:50:44.681Z,4.03
2023-03-26T10:53:16.064Z,5.13
2023-03-26T10:55:47.124Z,5.20
2023-03-26T10:58:26.580Z,5.15
2023-03-26T11:01:06.202Z,4.47
2023-03-26T11:03:40.755Z,5.38
2023-03-26T11:06:38.952Z,3.90
2023-03-26T11:09:14.351Z,6.50
2023-03-26T11:11:52.830Z,4.97
2023-03-26T11:14:34.990Z,4.73
2023-03-26T11:17:02.213Z,4.22
2023-03-26T11:19:53.239Z,5.47
2023-03-26T11:22:25.749Z,6.57
2023-03-26T11:25:15.404Z,4.22
2023-03-26T11:28:01.170Z,4.47
2023-03-26T11:31:05.357Z,4.65
2023-03-26T11:33:47.483Z,5.20
2023-03-26T11:36:17.942Z,5.97
2023-03-26T11:38:46.952Z,6.38
2023-03-26T11:41:22.529Z,4.97
2023-03-26T11:43:56.436Z,5.57
2023-03-26T11:46:23.878Z,4.13
2023-03-26T11:48:59.979Z,3.97
2023-03-26T11:51:34.356Z,3.88
2023-03-26T11:54:01.802Z,4.47
2023-03-26T11:57:05.888Z,4.18
2023-03-26T11:59:56.635Z,3.85
2023-03-26T12:02:29.690Z,2.83
2023-03-26T12:05:20.381Z,3.33
2023-03-26T12:07:57.537Z,3.47
2023-03-26T12:10:28.430Z,3.55
2023-03-26T12:12:58.000Z,4.03
2023-03-26T12:15:24.990Z,3.25
2023-03-26T12:17:56.173Z,4.40
2023-03-26T12:20:26.285Z,3.67
2023-03-26T12:22:59.469Z,3.25
2023-03-26T12:25:33.466Z,2.80
2023-03-26T12:28:19.146Z,3.10
2023-03-26T12:31:04.914Z,3.05
2023-03-26T12:33:35.768Z,3.63
2023-03-26T12:36:26.712Z,3.65
2023-03-26T12:39:17.167Z,3.58
2023-03-26T12:44:42.183Z,4.53
2023-03-26T12:44:59.310Z,3.42
2023-03-26T12:47:57.318Z,3.00
2023-03-26T12:50:17.709Z,4.40
2023-03-26T12:53:32.857Z,2.75
2023-03-26T12:56:22.010Z,3.80
2023-03-26T12:59:18.643Z,3.97
2023-03-26T13:01:56.359Z,5.03
2023-03-26T13:04:30.156Z,5.18
2023-03-26T13:07:34.420Z,4.53
2023-03-26T13:10:38.466Z,3.50
2023-03-26T13:13:17.971Z,4.30
2023-03-26T13:15:54.291Z,3.97
2023-03-26T13:18:27.366Z,5.38
2023-03-26T13:21:08.891Z,5.03
2023-03-26T13:23:57.037Z,4.93
2023-03-26T13:26:45.491Z,4.10
2023-03-26T13:29:30.757Z,5.23
2023-03-26T13:32:01.058Z,4.63
2023-03-26T13:34:46.195Z,4.38
2023-03-26T13:37:36.136Z,5.15
2023-03-26T13:40:25.566Z,5.30
2023-03-26T13:43:08.061Z,4.17
2023-03-26T13:45:53.265Z,4.78
2023-03-26T13:48:25.777Z,4.85
2023-03-26T13:51:14.556Z,3.65
2023-03-26T13:53:53.338Z,3.92
2023-03-26T13:56:23.637Z,6.60
2023-03-26T13:58:56.699Z,3.95
2023-03-26T14:01:33.833Z,3.17
2023-03-26T14:04:19.398Z,5.05
2023-03-26T14:07:04.978Z,4.07
2023-03-26T14:09:52.905Z,3.63
2023-03-26T14:12:38.030Z,3.75
2023-03-26T14:15:14.305Z,3.95
2023-03-26T14:18:18.196Z,3.45
2023-03-26T14:21:03.934Z,3.83
2023-03-26T14:23:34.292Z,4.10
2023-03-26T14:26:04.376Z,5.35
2023-03-26T14:28:58.900Z,4.97
2023-03-26T14:31:44.396Z,4.20
2023-03-26T14:34:56.132Z,3.78
2023-03-26T14:37:37.803Z,3.80
2023-03-26T14:40:16.763Z,4.78
2023-03-26T14:43:05.830Z,4.20
2023-03-26T14:45:44.886Z,5.18
2023-03-26T14:48:36.748Z,5.05
2023-03-26T14:51:28.524Z,5.00
2023-03-26T14:54:01.827Z,4.85
2023-03-26T14:56:34.557Z,4.30
2023-03-26T14:59:33.426Z,3.50
2023-03-26T15:02:39.017Z,4.35
2023-03-26T15:05:24.620Z,3.60
2023-03-26T15:08:07.744Z,3.92
2023-03-26T15:11:11.896Z,4.05
2023-03-26T15:14:14.287Z,4.35
2023-03-26T15:17:18.500Z,4.88
2023-03-26T15:19:51.457Z,5.23
2023-03-26T15:22:29.694Z,5.13
2023-03-26T15:24:59.383Z,3.60
2023-03-26T15:27:39.504Z,3.88
2023-03-26T15:30:35.682Z,4.72
2023-03-26T15:33:35.036Z,3.50
2023-03-26T15:36:21.671Z,4.28
2023-03-26T15:39:08.097Z,3.55
2023-03-26T15:41:50.717Z,6.38
2023-03-26T15:44:55.364Z,3.53
2023-03-26T15:47:50.556Z,3.33
2023-03-26T15:50:56.122Z,3.40
2023-03-26T15:53:44.851Z,3.80
2023-03-26T15:56:14.324Z,5.22
2023-03-26T15:58:56.043Z,6.18
2023-03-26T16:01:27.433Z,6.27
2023-03-26T16:04:09.151Z,3.40
2023-03-26T16:06:51.812Z,4.28
2023-03-26T16:09:38.895Z,5.50
2023-03-26T16:12:12.023Z,4.53
2023-03-26T16:14:45.703Z,4.57
2023-03-26T16:17:24.988Z,5.45
2023-03-26T16:20:14.153Z,6.50
2023-03-26T16:23:04.788Z,6.03
2023-03-26T16:25:35.971Z,6.47
2023-03-26T16:28:27.112Z,4.93
2023-03-26T16:31:23.494Z,6.63
2023-03-26T16:34:04.696Z,10.10
2023-03-26T16:36:35.144Z,8.93
2023-03-26T16:39:08.492Z,6.75
2023-03-26T16:41:50.251Z,8.67
2023-03-26T16:44:37.000Z,11.20
2023-03-26T16:47:34.856Z,9.55
2023-03-26T16:50:28.449Z,9.18
2023-03-26T16:52:58.902Z,6.72
2023-03-26T16:55:49.174Z,9.40
2023-03-26T16:58:28.053Z,8.68
2023-03-26T17:01:11.665Z,11.23
2023-03-26T17:03:45.783Z,8.70
2023-03-26T17:06:45.796Z,7.53
2023-03-26T17:09:37.876Z,7.77
2023-03-26T17:12:18.695Z,7.90
2023-03-26T17:15:06.008Z,9.30
2023-03-26T17:17:44.693Z,11.10
2023-03-26T17:20:41.184Z,9.07
2023-03-26T17:23:26.565Z,14.33
2023-03-26T17:26:05.042Z,11.88
2023-03-26T17:28:35.429Z,10.18
2023-03-26T17:31:16.467Z,8.77
2023-03-26T17:33:43.640Z,9.40
2023-03-26T17:36:14.484Z,8.43
2023-03-26T17:38:44.912Z,12.00
2023-03-26T17:41:13.421Z,9.20
2023-03-26T17:43:47.992Z,14.73
2023-03-26T17:46:29.698Z,8.02
2023-03-26T17:49:18.534Z,8.10
2023-03-26T17:51:52.708Z,7.78
2023-03-26T17:54:33.405Z,10.20
2023-03-26T17:57:06.175Z,10.00
2023-03-26T17:59:33.177Z,11.70
2023-03-26T18:02:01.081Z,10.40
2023-03-26T18:04:36.473Z,11.15
2023-03-26T18:07:16.964Z,8.65
2023-03-26T18:10:22.449Z,9.18
2023-03-26T18:13:08.776Z,7.28
2023-03-26T18:15:46.885Z,8.07
2023-03-26T18:18:23.509Z,10.27
2023-03-26T18:20:50.428Z,9.00
2023-03-26T18:23:28.746Z,12.63
2023-03-26T18:25:59.072Z,7.35
2023-03-26T18:28:35.512Z,7.70
2023-03-26T18:31:30.210Z,10.25
2023-03-26T18:33:59.230Z,9.82
2023-03-26T18:36:27.939Z,9.95
2023-03-26T18:39:00.696Z,9.23
2023-03-26T18:41:31.317Z,9.93
2023-03-26T18:44:02.369Z,12.18
2023-03-26T18:46:29.216Z,10.40
2023-03-26T18:48:56.963Z,8.93
2023-03-26T18:51:23.890Z,8.82
2023-03-26T18:53:59.526Z,8.00
2023-03-26T18:56:40.060Z,8.82
2023-03-26T18:59:28.235Z,8.20
2023-03-26T19:01:57.833Z,10.52
2023-03-26T19:04:28.261Z,10.60
2023-03-26T19:06:55.266Z,10.50
2023-03-26T19:09:31.518Z,7.50
2023-03-26T19:12:08.593Z,9.60
2023-03-26T19:14:51.271Z,12.15
2023-03-26T19:17:18.116Z,7.70
2023-03-26T19:19:45.243Z,5.97
2023-03-26T19:22:12.048Z,9.38
2023-03-26T19:24:39.106Z,9.52
2023-03-26T19:27:05.847Z,10.98
2023-03-26T19:29:33.149Z,12.10
2023-03-26T19:32:19.861Z,9.97
2023-03-26T19:34:47.177Z,13.40
2023-03-26T19:37:21.574Z,9.32
2023-03-26T19:39:52.857Z,9.43
2023-03-26T19:42:43.022Z,10.90
2023-03-26T19:45:20.804Z,8.83
2023-03-26T19:47:52.100Z,10.45
2023-03-26T19:50:34.369Z,11.88
2023-03-26T19:53:25.683Z,8.93
2023-03-26T19:55:57.446Z,9.93
2023-03-26T19:58:26.737Z,12.30
2023-03-26T20:00:55.893Z,8.70
2023-03-26T20:03:56.587Z,11.75
2023-03-26T20:06:34.112Z,9.18
2023-03-26T20:09:10.916Z,10.52
2023-03-26T20:11:39.301Z,12.00
2023-03-26T20:14:21.690Z,9.30
2023-03-26T20:16:48.845Z,11.02
2023-03-26T20:19:15.827Z,9.40
2023-03-26T20:21:42.914Z,11.07
2023-03-26T20:24:12.440Z,8.83
2023-03-26T20:26:39.262Z,6.55
2023-03-26T20:29:06.187Z,8.90
2023-03-26T20:31:33.129Z,7.55
2023-03-26T20:33:59.997Z,14.85
2023-03-26T20:36:33.763Z,9.80
2023-03-26T20:39:08.425Z,9.40
2023-03-26T20:41:35.987Z,9.48
2023-03-26T20:44:05.048Z,8.27
2023-03-26T20:46:33.237Z,9.02
2023-03-26T20:49:00.254Z,9.47
2023-03-26T20:51:28.783Z,12.65
2023-03-26T20:53:55.974Z,9.07
2023-03-26T20:56:22.801Z,8.07
2023-03-26T20:58:54.797Z,5.63
2023-03-26T21:01:27.922Z,9.83
2023-03-26T21:03:54.843Z,11.65
2023-03-26T21:06:21.625Z,11.35
2023-03-26T21:08:48.756Z,11.18
2023-03-26T21:11:26.564Z,9.10
2023-03-26T21:13:57.307Z,5.90
2023-03-26T21:16:24.364Z,5.82
2023-03-26T21:18:51.874Z,10.05
2023-03-26T21:21:30.592Z,8.00
2023-03-26T21:24:05.199Z,7.85
2023-03-26T21:26:53.038Z,6.83
2023-03-26T21:29:20.071Z,8.68
2023-03-26T21:31:47.282Z,6.80
2023-03-26T21:34:14.330Z,9.93
2023-03-26T21:36:42.073Z,6.80
2023-03-26T21:39:11.077Z,8.23
2023-03-26T21:41:45.724Z,8.23
2023-03-26T21:44:14.312Z,10.82
2023-03-26T21:46:42.838Z,8.73
2023-03-26T21:49:10.387Z,9.65
2023-03-26T21:51:38.041Z,9.33
2023-03-26T21:54:20.968Z,10.10
2023-03-26T21:57:07.625Z,9.98
2023-03-26T21:59:46.360Z,14.35
2023-03-26T22:02:48.425Z,11.80
2023-03-26T22:05:19.863Z,8.93
2023-03-26T22:07:51.584Z,8.20
2023-03-26T22:10:18.612Z,12.27
2023-03-26T22:12:45.363Z,9.68
2023-03-26T22:15:15.261Z,8.65
2023-03-26T22:17:42.284Z,12.00
2023-03-26T22:20:10.739Z,13.77
2023-03-26T22:22:37.487Z,10.20
2023-03-26T22:25:04.451Z,11.00
2023-03-26T22:27:31.200Z,6.93
2023-03-26T22:29:57.958Z,11.53
2023-03-26T22:32:24.768Z,10.93
2023-03-26T22:34:59.575Z,7.97
2023-03-26T22:37:26.356Z,7.70
2023-03-26T22:39:53.109Z,7.05
2023-03-26T22:42:19.870Z,6.37
2023-03-26T22:44:46.637Z,7.40
2023-03-26T22:47:13.788Z,7.57
2023-03-26T22:49:40.769Z,5.07
2023-03-26T22:52:07.749Z,6.20
2023-03-26T22:54:36.516Z,4.67
2023-03-26T22:57:03.937Z,6.13
2023-03-26T22:59:31.144Z,7.30
2023-03-26T23:01:57.918Z,5.70
2023-03-26T23:04:31.569Z,4.97
2023-03-26T23:06:59.118Z,6.80
2023-03-26T23:09:25.843Z,4.85
2023-03-26T23:11:52.594Z,5.40
2023-03-26T23:14:20.232Z,4.35
2023-03-26T23:16:46.946Z,4.93
2023-03-26T23:19:13.852Z,5.03
2023-03-26T23:21:40.564Z,4.10
2023-03-26T23:24:07.371Z,4.47
2023-03-26T23:26:43.903Z,4.68
2023-03-26T23:29:17.503Z,5.30
2023-03-26T23:31:44.318Z,4.27
2023-03-26T23:34:13.583Z,5.68
2023-03-26T23:36:41.831Z,4.72
2023-03-26T23:39:09.765Z,4.47
2023-03-26T23:41:36.895Z,3.92
2023-03-26T23:44:03.869Z,4.63
2023-03-26T23:46:33.172Z,4.70
2023-03-26T23:49:02.642Z,4.13
2023-03-26T23:51:32.684Z,3.28
2023-03-26T23:54:00.237Z,4.72
2023-03-26T23:56:30.207Z,3.97
2023-03-26T23:58:57.251Z,4.05
